KSAN Airport Information

Runway Information
Runway 09 Length 9401 ft width 200 ft
Elevation 14 ft Threshold 700 ft Heading 106
Runway 27 Length 9401 ft Width 200 ft
Elevation 13 ft Threshold 1810 ft Heading 286
Airport Frequencies
Type A/D Name SOCAL APP/ Frequency 119.6 MHZ
Type ATIS Name ATIS Frequency 134.8 MHZ
Type CLD Name CLNC DEL Frequency 125.9 MHZ
Type GND Name GND Frequency 123.9 MHZ
Type MISC Name CG Frequency 157.15 MHZ
Type MISC Name CG Frequency 898.4 MHZ
Type TWR Name LINDBERGH Frequency 118.3 MHZ
Type UNIC Name UNICOM Frequency 122.95 MHZ
Airport Navaids
Type NDB Name Boing Frequency 245 KHZ
Airport Weather Information & NOTAM
ADDS - METARS form results

(1913 UTC 22 June 2018)
 
METAR text: KSAN 221851Z 30009KT 10SM FEW018 23/16 A2990 RMK AO2 SLP125 T02280161
Conditions at: KSAN (SAN DIEGO , CA, US) observed 1851 UTC 22 June 2018
Temperature: 22.8°C (73°F)
Dewpoint: 16.1°C (61°F) [RH = 66%]
Pressure (altimeter): 29.90 inches Hg (1012.6 mb)
[Sea-level pressure: 1012.5 mb]
Winds: from the WNW (300 degrees) at 10 MPH (9 knots; 4.7 m/s)
Visibility: 10 or more miles (16+ km)
Ceiling: at least 12,000 feet AGL
Clouds: few clouds at 1800 feet AGL
Weather: no significant weather observed at this time